Rivolto Air Base

LIPI · Friuli Venezia Giulia, 意大利

罗盘
风向 的 Rivolto Air Base 6/24
风: 0 kt, 0 beaufort


改变
0 1.000 2.000 3.000 4.000 5.000
OVC 1.500 ft
SPECI LIVO 060955Z 00000KT 0200 FG OVC015 00/M02 Q1015 RMK OVC VIS MIN 0200

METAR Rivolto Air Base - LIPI

Rivolto Air Base是,意大利中的中型机场。 该机场有一条跑道: 6/24. 该领域的国际民航组织标志是LIPI.

这份报告是针对2022年12月6日 10:55, 当地时间在Tarvisio进行的。

机场观察

可变方向的风很小或没有风。

可见度为200 m。

有乌云密布在1.500 ft的高度。 破损或更高的上限为1.500 ft。

当前天气为多雾路段。 温度和风寒是0 °C。 露点为-2 °C,相对湿度为87%。 海平面上的气压为1015 hPa (QNH)。

白天

今天,太阳从07:34升起,在16:23降落。 这适用于Rivolto Air Base,世界夏令时可能有所不同。 当地时间与世界标准时间之间的时差为+1 小时。 当前,没有夏令时有效。

公司介绍

我们没有关于这个机场的公司信息。

体会

到Vliegles.nl去找飞行课程,跳伞和其他飞行体验。 浏览页面,了解Rivolto Air Base附近所有可用的活动。 你也可以使用搜索功能来寻找你所在地附近的特定飞行课程、跳伞或其他飞行体验。

跑道

Id 标题 侧风 逆风 侧风 %
6/24 059°-239°

逆风成分最大的方向会被突出显示,并用于横风计算。 这并不一定意味着这个方向在使用。

乌云

1.500 ft OVC 乌云密布

温度 & 天气

天气 多雾路段
温度 0 °C
露点 -2 °C
相对湿度 87%
Kp-index 0 (0-9)

评论

OVC VIS MIN 0200

白天

日出
07:34
中午
11:56
日落
16:18 (4:48)

小工具

你想在你的网站上有一个关于Rivolto Air Base的当前航空天气(METAR)的小部件吗?

显示HTML代码

我们和第三方通过cookies跟踪您在我们网站上的互联网行为。如果你继续,我们认为你同意我们的饼干政策